Terminal Aerodrome Forecast
Issued by NWS

Home | Current Version | Previous Version | Text Only | Print | Product List | Glossary Off
Versions: 1 2 3 4 5 6 7 8 9 10 11 12 13 14 15 16 17 18 19 20 21 22 23 24 25 26 27 28 29

076
FTUS43 KICT 141050 AAC
TAFCNU
TAF AMD
KCNU 141050Z 1411/1506 14005KT 4SM BR BKN004
      TEMPO 1411/1413 1SM BR BKN002
     FM141300 15004KT 5SM BR BKN005
     FM141400 15005KT P6SM BKN015
     FM141700 16007KT P6SM SCT035=

USA.gov is the U.S. government's official web portal to all federal, state and local government web resources and services.